Time;durP1;ratioP1;P1;durP2;ratioP2;P2;SDS_P1;SDS_P2;PMS_P1;PMS_P2;Temp;Humidity;BMP_temperature;BMP_pressure;BME280_temperature;BME280_humidity;BME280_pressure;Samples;Min_cycle;Max_cycle;Signal;HPM_P1;HPM_P2
2021/12/30 15:03:42;;;;;;;12.68;2.83;;;25.60;48.80;;;;;;5045218;28;20424;-70
2021/12/30 15:06:08;;;;;;;5.80;2.65;;;25.40;48.00;;;;;;5036051;28;20117;-76
2021/12/30 15:08:35;;;;;;;11.40;3.58;;;25.40;48.40;;;;;;5043782;28;20018;-71
2021/12/30 15:11:02;;;;;;;9.40;2.88;;;25.30;48.90;;;;;;5043687;28;20052;-73
2021/12/30 15:13:28;;;;;;;9.27;2.67;;;25.30;48.60;;;;;;5049846;28;20032;-78
2021/12/30 15:15:55;;;;;;;6.60;2.92;;;25.30;48.90;;;;;;5043993;28;20057;-78
2021/12/30 15:18:21;;;;;;;12.27;3.30;;;25.40;48.90;;;;;;5034071;28;20459;-75
2021/12/30 15:20:48;;;;;;;8.88;3.25;;;25.50;49.10;;;;;;5040571;28;20032;-75
2021/12/30 15:23:17;;;;;;;23.88;4.32;;;25.50;49.10;;;;;;5042723;28;20032;-72
2021/12/30 15:25:45;;;;;;;7.50;2.25;;;25.50;48.00;;;;;;5039471;28;20021;-71
2021/12/30 15:28:12;;;;;;;6.20;2.05;;;25.60;48.80;;;;;;5036894;28;20036;-72
2021/12/30 15:30:38;;;;;;;5.18;2.28;;;25.60;48.80;;;;;;5040596;28;20057;-72
2021/12/30 15:33:06;;;;;;;8.20;2.20;;;25.60;48.20;;;;;;5042393;28;20029;-72
2021/12/30 15:35:37;;;;;;;7.05;2.42;;;25.60;47.50;;;;;;5036990;28;20076;-71
2021/12/30 15:38:04;;;;;;;19.83;2.90;;;25.60;47.50;;;;;;5048085;28;20065;-70
2021/12/30 15:40:32;;;;;;;20.70;12.50;;;25.40;47.50;;;;;;5033138;28;20492;-77
2021/12/30 15:43:02;;;;;;;17.70;7.32;;;25.30;48.20;;;;;;5048249;28;20116;-72
2021/12/30 15:45:29;;;;;;;22.08;6.32;;;25.20;48.50;;;;;;5036611;28;20080;-72
2021/12/30 15:47:56;;;;;;;64.55;6.57;;;25.20;49.40;;;;;;5042743;28;20021;-73
2021/12/30 15:50:22;;;;;;;30.20;4.65;;;25.20;50.20;;;;;;5038821;28;20356;-70
2021/12/30 15:52:54;;;;;;;96.80;11.30;;;25.30;50.20;;;;;;5046736;28;20072;-70
2021/12/30 15:55:22;;;;;;;50.05;7.35;;;25.30;50.00;;;;;;5037046;28;20029;-70
2021/12/30 15:57:50;;;;;;;33.20;5.10;;;25.40;49.90;;;;;;5042887;28;20117;-71
2021/12/30 16:00:19;;;;;;;36.70;4.28;;;25.40;49.10;;;;;;5038493;28;20127;-71
2021/12/30 16:02:45;;;;;;;69.15;10.60;;;25.50;49.10;;;;;;5042215;28;20320;-70
2021/12/30 16:05:13;;;;;;;67.10;8.73;;;25.40;49.50;;;;;;5035162;28;20415;-69
2021/12/30 16:07:40;;;;;;;52.78;7.47;;;25.50;50.50;;;;;;5038766;28;20029;-70
2021/12/30 16:10:09;;;;;;;32.38;5.18;;;25.50;50.50;;;;;;5040935;28;20047;-70
2021/12/30 16:12:37;;;;;;;54.08;6.20;;;25.50;50.30;;;;;;5038436;28;20029;-73
2021/12/30 16:15:07;;;;;;;20.33;3.78;;;25.50;50.30;;;;;;5024298;28;20537;-71
2021/12/30 16:17:34;;;;;;;41.28;6.70;;;25.50;50.40;;;;;;5023315;28;20065;-73
2021/12/30 16:20:00;;;;;;;74.70;9.65;;;25.40;50.20;;;;;;5020371;28;20030;-70
2021/12/30 16:22:27;;;;;;;62.97;10.80;;;25.40;50.20;;;;;;5022446;28;20049;-70
2021/12/30 16:24:53;;;;;;;46.97;7.90;;;25.40;50.80;;;;;;5032704;28;20052;-71
2021/12/30 16:27:20;;;;;;;65.20;7.88;;;25.30;50.90;;;;;;5020003;28;20025;-71
2021/12/30 16:29:46;;;;;;;39.22;6.35;;;25.30;51.20;;;;;;5022656;28;20144;-70
2021/12/30 16:32:12;;;;;;;49.33;6.55;;;25.30;51.00;;;;;;5024313;28;20503;-71
2021/12/30 16:34:39;;;;;;;49.17;7.32;;;25.30;50.80;;;;;;5024900;28;20432;-70
2021/12/30 16:37:06;;;;;;;46.53;7.30;;;25.30;51.00;;;;;;5019831;28;20469;-72
2021/12/30 16:39:35;;;;;;;24.48;7.60;;;25.30;50.60;;;;;;5019182;28;20713;-70
2021/12/30 16:42:05;;;;;;;24.98;16.70;;;25.20;50.40;;;;;;5020356;28;20113;-69
2021/12/30 16:44:32;;;;;;;27.08;8.48;;;25.10;50.30;;;;;;5020081;28;20052;-74
2021/12/30 16:47:03;;;;;;;22.08;5.40;;;25.10;50.40;;;;;;5041981;28;20486;-73
2021/12/30 16:49:29;;;;;;;16.13;5.35;;;25.10;50.10;;;;;;5025013;28;20026;-75
2021/12/30 16:51:57;;;;;;;11.30;3.30;;;25.10;49.90;;;;;;5033101;28;20014;-72
2021/12/30 16:54:23;;;;;;;9.40;2.80;;;25.00;49.60;;;;;;5030627;28;20029;-72
2021/12/30 16:56:50;;;;;;;6.75;2.17;;;25.00;49.30;;;;;;5028625;28;20479;-71
2021/12/30 16:59:19;;;;;;;4.55;2.13;;;25.00;49.40;;;;;;5033715;28;20037;-73
2021/12/30 17:01:46;;;;;;;19.73;3.78;;;24.90;49.50;;;;;;5026132;28;20045;-74
2021/12/30 17:04:13;;;;;;;16.42;6.13;;;24.90;49.60;;;;;;5030707;28;20035;-72
2021/12/30 17:06:41;;;;;;;10.23;5.43;;;25.00;49.80;;;;;;5019190;28;20328;-71
2021/12/30 17:09:07;;;;;;;10.07;4.43;;;24.90;49.80;;;;;;5021806;28;20033;-71
2021/12/30 17:11:34;;;;;;;11.63;3.15;;;24.90;49.70;;;;;;5024009;28;20025;-74
2021/12/30 17:14:00;;;;;;;8.48;3.38;;;24.90;49.60;;;;;;5024884;28;20068;-72
2021/12/30 17:16:29;;;;;;;11.80;2.53;;;24.80;49.60;;;;;;5025699;28;20116;-72
2021/12/30 17:18:57;;;;;;;7.85;2.33;;;24.80;49.60;;;;;;5021336;28;20026;-73
2021/12/30 17:21:23;;;;;;;6.60;2.92;;;24.80;49.70;;;;;;5029394;28;20044;-72
2021/12/30 17:23:50;;;;;;;17.20;3.28;;;24.80;49.60;;;;;;5029145;28;20026;-73
2021/12/30 17:26:17;;;;;;;16.40;2.85;;;24.70;49.60;;;;;;5033862;28;20041;-70
2021/12/30 17:28:44;;;;;;;8.90;2.80;;;24.70;50.00;;;;;;5022697;28;20022;-71
2021/12/30 17:31:11;;;;;;;13.57;2.80;;;24.60;50.00;;;;;;5024782;28;20018;-71
2021/12/30 17:33:39;;;;;;;3.78;1.80;;;24.60;50.20;;;;;;5037452;28;20021;-73
2021/12/30 17:36:06;;;;;;;10.38;4.50;;;24.60;49.80;;;;;;5021237;28;20021;-72
2021/12/30 17:38:32;;;;;;;30.42;4.63;;;24.50;49.80;;;;;;5025741;28;20053;-73
2021/12/30 17:40:59;;;;;;;19.02;3.72;;;24.50;50.10;;;;;;5022327;28;20654;-75
2021/12/30 17:43:26;;;;;;;10.85;2.85;;;24.40;50.40;;;;;;5025049;28;20042;-73
2021/12/30 17:45:53;;;;;;;12.05;3.28;;;24.40;50.60;;;;;;5021603;28;20112;-77
2021/12/30 17:48:20;;;;;;;9.30;2.55;;;24.40;50.70;;;;;;5017586;28;20021;-73
2021/12/30 17:50:53;;;;;;;8.40;2.50;;;24.30;50.60;;;;;;5025250;28;20030;-74
2021/12/30 17:53:21;;;;;;;5.38;2.05;;;24.40;50.60;;;;;;5024294;28;20024;-73
2021/12/30 17:55:47;;;;;;;12.77;3.95;;;24.40;50.50;;;;;;5021718;28;20029;-74
2021/12/30 17:58:15;;;;;;;14.35;3.60;;;24.30;49.70;;;;;;5017637;28;20014;-72
2021/12/30 18:00:42;;;;;;;20.73;3.92;;;24.20;49.40;;;;;;5023692;28;20029;-73
2021/12/30 18:03:11;;;;;;;9.70;2.63;;;24.10;50.00;;;;;;5021924;28;20050;-76
2021/12/30 18:05:37;;;;;;;8.25;2.20;;;23.80;50.30;;;;;;5021403;28;20030;-76
2021/12/30 18:08:05;;;;;;;38.28;4.93;;;23.70;50.20;;;;;;5019916;28;20021;-75
2021/12/30 18:10:31;;;;;;;36.00;6.47;;;23.60;50.60;;;;;;5022369;28;20050;-74
2021/12/30 18:12:58;;;;;;;35.42;9.43;;;23.50;51.20;;;;;;5020700;28;20033;-72
2021/12/30 18:15:26;;;;;;;27.92;8.60;;;23.50;51.60;;;;;;5013428;28;20061;-77
2021/12/30 18:17:53;;;;;;;22.85;6.55;;;23.50;51.90;;;;;;5018150;28;20029;-70
2021/12/30 18:20:19;;;;;;;27.17;5.57;;;23.60;52.00;;;;;;5016190;28;20081;-73
2021/12/30 18:22:47;;;;;;;23.85;4.88;;;23.60;52.00;;;;;;5019772;28;20033;-80
2021/12/30 18:25:15;;;;;;;8.50;3.03;;;23.70;51.90;;;;;;5025548;28;20017;-74
2021/12/30 18:27:42;;;;;;;10.13;2.78;;;23.70;51.70;;;;;;5019107;28;20018;-75
2021/12/30 18:30:11;;;;;;;9.85;3.13;;;23.70;51.70;;;;;;5021973;28;20030;-75
2021/12/30 18:32:38;;;;;;;6.40;2.17;;;23.80;51.70;;;;;;5025045;28;20022;-75
2021/12/30 18:35:06;;;;;;;7.07;2.88;;;23.70;51.60;;;;;;5020806;28;20022;-75
2021/12/30 18:37:34;;;;;;;7.28;2.38;;;23.70;51.70;;;;;;5022345;28;20025;-76
2021/12/30 18:40:01;;;;;;;6.05;2.05;;;23.80;51.80;;;;;;5022477;28;20032;-73
2021/12/30 18:42:28;;;;;;;8.50;2.00;;;23.70;51.80;;;;;;5035528;28;20391;-73
2021/12/30 18:44:55;;;;;;;9.60;2.30;;;23.70;51.80;;;;;;5021168;28;20021;-76
2021/12/30 18:47:24;;;;;;;14.35;3.53;;;23.70;51.60;;;;;;5025380;28;20021;-74
2021/12/30 18:49:51;;;;;;;7.25;2.13;;;23.70;51.60;;;;;;5033334;28;20402;-80
2021/12/30 18:52:18;;;;;;;8.30;1.92;;;23.70;51.70;;;;;;5019978;28;20014;-73
2021/12/30 18:54:46;;;;;;;11.80;3.63;;;23.70;51.70;;;;;;5018092;28;20664;-79
2021/12/30 18:57:14;;;;;;;5.72;2.10;;;23.70;51.80;;;;;;5018823;28;20030;-70
2021/12/30 18:59:41;;;;;;;6.20;1.80;;;23.60;51.60;;;;;;5022585;28;20060;-79
2021/12/30 19:02:07;;;;;;;4.95;1.90;;;23.60;51.70;;;;;;5018575;28;20097;-77
2021/12/30 19:04:34;;;;;;;8.13;2.33;;;23.60;51.70;;;;;;5024468;28;20032;-81
2021/12/30 19:07:01;;;;;;;5.65;1.73;;;23.60;51.70;;;;;;5016516;28;20018;-77
2021/12/30 19:09:29;;;;;;;4.28;1.98;;;23.60;51.80;;;;;;5020578;28;20498;-78
2021/12/30 19:12:03;;;;;;;10.27;2.20;;;23.60;51.70;;;;;;5026481;28;20026;-81
2021/12/30 19:14:31;;;;;;;27.08;4.10;;;23.50;51.60;;;;;;5024197;28;20346;-80
2021/12/30 19:16:58;;;;;;;16.73;3.13;;;23.50;51.50;;;;;;5021889;28;20030;-74
2021/12/30 19:19:24;;;;;;;15.13;2.83;;;23.50;51.80;;;;;;5017204;28;20504;-76
2021/12/30 19:21:51;;;;;;;6.70;2.08;;;23.50;51.80;;;;;;5014570;28;20473;-75
2021/12/30 19:24:17;;;;;;;10.20;2.38;;;23.50;51.70;;;;;;5013952;28;20041;-77
2021/12/30 19:26:44;;;;;;;8.25;2.20;;;23.40;51.80;;;;;;5016375;28;20026;-75
2021/12/30 19:29:10;;;;;;;10.27;2.67;;;23.40;51.90;;;;;;5015245;28;20061;-76
2021/12/30 19:31:37;;;;;;;17.20;10.00;;;23.40;52.00;;;;;;5018059;28;20026;-71
2021/12/30 19:34:03;;;;;;;15.57;9.75;;;23.40;52.00;;;;;;5019436;28;20099;-77
2021/12/30 19:36:35;;;;;;;16.85;7.30;;;23.30;52.00;;;;;;5017745;28;20515;-79
2021/12/30 19:39:04;;;;;;;12.18;4.18;;;23.30;52.20;;;;;;5011535;28;20018;-73
2021/12/30 19:41:33;;;;;;;5.32;2.47;;;23.30;52.30;;;;;;5017962;28;20060;-77
2021/12/30 19:44:00;;;;;;;11.32;3.42;;;23.30;52.30;;;;;;5020504;28;20037;-77
2021/12/30 19:46:35;;;;;;;8.00;2.90;;;23.30;52.30;;;;;;5017087;28;20123;-77
2021/12/30 19:49:05;;;;;;;6.75;2.65;;;23.30;52.30;;;;;;5015292;28;20127;-77
2021/12/30 19:51:32;;;;;;;10.85;2.85;;;23.30;52.40;;;;;;5040153;28;20033;-78
2021/12/30 19:53:59;;;;;;;9.93;2.80;;;23.30;52.50;;;;;;5020890;28;20030;-77
2021/12/30 19:56:26;;;;;;;8.43;2.53;;;23.20;52.50;;;;;;5025806;28;20025;-75
2021/12/30 19:58:54;;;;;;;13.23;8.07;;;23.20;52.60;;;;;;5021187;28;20048;-79
2021/12/30 20:01:21;;;;;;;24.42;19.92;;;23.20;52.70;;;;;;5019813;28;20025;-77
2021/12/30 20:03:47;;;;;;;24.88;16.67;;;23.20;53.40;;;;;;5020800;28;20022;-72
2021/12/30 20:06:14;;;;;;;27.98;20.27;;;23.20;52.80;;;;;;5024058;28;20380;-78
2021/12/30 20:08:41;;;;;;;18.10;13.07;;;23.20;52.80;;;;;;5019784;28;20018;-79
2021/12/30 20:11:07;;;;;;;11.02;6.35;;;23.20;52.80;;;;;;5020703;28;20115;-75
2021/12/30 20:13:34;;;;;;;10.98;5.18;;;23.20;52.80;;;;;;5020198;28;20168;-77
2021/12/30 20:16:02;;;;;;;6.43;2.70;;;23.10;52.70;;;;;;5018230;28;20026;-72
2021/12/30 20:18:28;;;;;;;10.63;3.30;;;23.10;52.70;;;;;;5022649;28;20029;-78
2021/12/30 20:20:55;;;;;;;4.40;2.42;;;23.10;52.60;;;;;;5018684;28;20025;-79
2021/12/30 20:23:21;;;;;;;7.10;2.53;;;23.10;52.60;;;;;;5018904;28;20053;-78
2021/12/30 20:25:48;;;;;;;8.60;2.10;;;23.10;52.50;;;;;;5014418;28;20022;-81
2021/12/30 20:28:15;;;;;;;13.70;3.33;;;23.00;52.50;;;;;;5024659;28;20044;-77
2021/12/30 20:30:44;;;;;;;8.38;2.80;;;23.00;52.60;;;;;;5013244;28;20030;-78
2021/12/30 20:33:11;;;;;;;5.75;2.17;;;23.00;52.60;;;;;;5019200;28;20022;-78
2021/12/30 20:35:38;;;;;;;8.05;2.53;;;23.00;52.60;;;;;;5022999;28;20041;-77
2021/12/30 20:38:06;;;;;;;6.40;1.83;;;23.00;52.70;;;;;;5017611;28;20006;-79
2021/12/30 20:40:34;;;;;;;8.57;2.38;;;23.00;52.70;;;;;;5024453;28;20132;-78
2021/12/30 20:43:05;;;;;;;6.07;1.90;;;23.00;52.90;;;;;;5018084;28;20539;-75
2021/12/30 20:45:32;;;;;;;6.40;2.05;;;22.90;53.00;;;;;;5020485;28;20061;-80
2021/12/30 20:47:59;;;;;;;8.65;2.15;;;22.90;53.10;;;;;;5019691;28;20079;-78
2021/12/30 20:50:28;;;;;;;8.50;2.85;;;22.90;53.30;;;;;;5026273;28;20510;-79
2021/12/30 20:52:57;;;;;;;8.95;2.53;;;22.90;53.30;;;;;;5018507;28;20026;-80
2021/12/30 20:55:26;;;;;;;22.00;4.78;;;22.90;53.50;;;;;;5018445;28;20024;-80
2021/12/30 20:57:54;;;;;;;10.63;3.25;;;22.90;53.60;;;;;;5022298;28;20024;-82
2021/12/30 21:00:27;;;;;;;7.72;2.60;;;22.90;53.60;;;;;;5021351;28;20091;-79
2021/12/30 21:02:54;;;;;;;11.52;2.90;;;22.90;53.60;;;;;;5016886;28;20408;-80
2021/12/30 21:05:22;;;;;;;10.23;2.10;;;22.90;53.70;;;;;;5025909;28;20029;-79
2021/12/30 21:07:49;;;;;;;7.18;1.95;;;22.90;53.90;;;;;;5023622;28;20106;-80
2021/12/30 21:10:18;;;;;;;6.90;2.67;;;22.80;53.90;;;;;;5024487;28;20018;-79
2021/12/30 21:12:46;;;;;;;8.35;2.47;;;22.80;53.90;;;;;;5027114;28;20020;-74
2021/12/30 21:15:13;;;;;;;11.15;2.42;;;22.80;54.20;;;;;;5026036;28;20009;-78
2021/12/30 21:17:40;;;;;;;8.35;2.10;;;22.80;54.50;;;;;;5024201;28;20026;-77
2021/12/30 21:20:12;;;;;;;8.68;2.47;;;22.80;54.50;;;;;;5023352;28;20118;-76
2021/12/30 21:22:39;;;;;;;11.32;2.25;;;22.80;54.60;;;;;;5026845;28;20108;-71
2021/12/30 21:25:06;;;;;;;8.75;2.13;;;22.70;54.50;;;;;;5025214;28;20029;-77
2021/12/30 21:27:33;;;;;;;8.27;2.60;;;22.80;54.60;;;;;;5022565;28;20022;-78
2021/12/30 21:30:02;;;;;;;12.60;3.58;;;22.70;54.60;;;;;;5029095;28;20345;-76
2021/12/30 21:32:32;;;;;;;7.40;3.00;;;22.70;54.60;;;;;;5029016;28;20072;-78
2021/12/30 21:35:01;;;;;;;8.35;3.35;;;22.70;54.70;;;;;;5024004;28;20025;-74
2021/12/30 21:37:28;;;;;;;15.38;2.25;;;22.80;54.80;;;;;;5029663;28;20033;-77
2021/12/30 21:39:54;;;;;;;30.10;3.80;;;22.70;54.90;;;;;;5018935;28;20022;-73
2021/12/30 21:42:21;;;;;;;19.67;3.20;;;22.70;55.10;;;;;;5024866;28;20167;-78
2021/12/30 21:44:47;;;;;;;13.48;3.08;;;22.70;55.30;;;;;;5029264;28;20052;-77
2021/12/30 21:47:14;;;;;;;10.75;2.95;;;22.70;55.30;;;;;;5023163;28;20021;-76
2021/12/30 21:49:41;;;;;;;5.15;1.85;;;22.70;55.30;;;;;;5030431;28;20167;-79
2021/12/30 21:52:07;;;;;;;7.18;2.53;;;22.70;55.30;;;;;;5024230;28;20021;-77
2021/12/30 21:54:34;;;;;;;8.75;2.17;;;22.60;55.10;;;;;;5028119;28;20904;-76
2021/12/30 21:57:01;;;;;;;4.45;2.15;;;22.70;55.10;;;;;;5026153;28;20357;-76
2021/12/30 21:59:28;;;;;;;6.38;1.92;;;22.60;55.10;;;;;;5024571;28;20063;-77
2021/12/30 22:01:55;;;;;;;17.33;2.90;;;22.60;55.10;;;;;;5022387;28;20492;-77
2021/12/30 22:04:21;;;;;;;9.15;3.00;;;22.60;55.20;;;;;;5026382;28;20014;-77
2021/12/30 22:06:47;;;;;;;5.00;2.20;;;22.60;55.30;;;;;;5022782;28;20032;-74
2021/12/30 22:09:14;;;;;;;6.45;2.33;;;22.60;55.30;;;;;;5021555;28;20075;-74
2021/12/30 22:11:40;;;;;;;7.55;2.83;;;22.60;55.30;;;;;;5023914;28;20539;-74
2021/12/30 22:14:07;;;;;;;4.38;1.70;;;22.60;55.30;;;;;;5026907;28;20075;-78
2021/12/30 22:16:34;;;;;;;7.75;2.17;;;22.60;55.20;;;;;;5023540;28;20521;-74
2021/12/30 22:19:00;;;;;;;13.20;2.47;;;22.60;55.10;;;;;;5024746;28;20072;-75
2021/12/30 22:21:27;;;;;;;5.10;2.38;;;22.50;55.00;;;;;;5020855;28;20037;-77
2021/12/30 22:23:53;;;;;;;9.20;2.42;;;22.50;55.10;;;;;;5023354;28;20889;-76
2021/12/30 22:26:20;;;;;;;12.75;3.40;;;22.50;55.30;;;;;;5024347;28;20443;-76
2021/12/30 22:28:47;;;;;;;6.68;2.70;;;22.50;55.70;;;;;;5025211;28;20028;-75
2021/12/30 22:31:13;;;;;;;11.93;3.60;;;22.50;56.10;;;;;;5017309;28;20022;-75
2021/12/30 22:33:39;;;;;;;8.50;2.90;;;22.50;56.40;;;;;;5028367;28;20108;-76
2021/12/30 22:36:06;;;;;;;13.10;2.67;;;22.50;56.60;;;;;;5022612;28;20037;-76
2021/12/30 22:38:33;;;;;;;9.70;2.78;;;22.50;56.60;;;;;;5026821;28;20113;-77
2021/12/30 22:41:01;;;;;;;10.05;2.72;;;22.50;56.60;;;;;;5027362;28;20032;-76
2021/12/30 22:43:33;;;;;;;12.23;3.30;;;22.40;56.60;;;;;;5023965;28;20128;-75
2021/12/30 22:46:00;;;;;;;14.80;2.88;;;22.40;56.60;;;;;;5021132;28;20034;-77
2021/12/30 22:48:28;;;;;;;19.00;3.63;;;22.40;56.70;;;;;;5021223;28;20029;-75
2021/12/30 22:50:56;;;;;;;14.75;3.67;;;22.40;56.80;;;;;;5025715;28;20026;-76
2021/12/30 22:53:22;;;;;;;8.13;2.22;;;22.40;56.80;;;;;;5025359;28;20480;-76
2021/12/30 22:55:49;;;;;;;8.93;2.28;;;22.40;56.80;;;;;;5026438;28;20077;-76
2021/12/30 22:58:15;;;;;;;11.68;2.53;;;22.40;56.80;;;;;;5024387;28;20892;-77
2021/12/30 23:00:52;;;;;;;9.52;1.90;;;22.40;56.90;;;;;;5022507;28;20074;-77
2021/12/30 23:03:21;;;;;;;18.63;3.53;;;22.30;57.00;;;;;;5020382;28;20076;-79
2021/12/30 23:05:48;;;;;;;13.02;2.60;;;22.30;57.20;;;;;;5024750;28;20017;-77
2021/12/30 23:08:14;;;;;;;8.15;2.75;;;22.30;57.30;;;;;;5025912;28;20017;-76
2021/12/30 23:10:41;;;;;;;6.90;1.90;;;22.30;57.30;;;;;;5025028;28;20794;-75
2021/12/30 23:13:07;;;;;;;11.60;1.98;;;22.30;57.40;;;;;;5030309;28;20047;-78
2021/12/30 23:15:34;;;;;;;12.32;2.80;;;22.30;57.30;;;;;;5023046;28;20357;-78
2021/12/30 23:18:01;;;;;;;11.77;2.72;;;22.30;57.30;;;;;;5024790;28;20354;-75
2021/12/30 23:20:33;;;;;;;9.82;2.60;;;22.30;57.20;;;;;;5024748;28;20500;-77
2021/12/30 23:23:00;;;;;;;17.67;3.65;;;22.30;57.20;;;;;;5019712;28;20045;-75
2021/12/30 23:25:27;;;;;;;11.25;2.83;;;22.20;57.30;;;;;;5033886;28;20072;-77
2021/12/30 23:27:53;;;;;;;11.02;2.70;;;22.20;57.40;;;;;;5027355;28;20010;-75
2021/12/30 23:30:19;;;;;;;10.15;1.83;;;22.20;57.50;;;;;;5024729;28;20053;-78
2021/12/30 23:32:46;;;;;;;6.47;2.15;;;22.20;57.50;;;;;;5026545;28;20129;-76
2021/12/30 23:35:12;;;;;;;10.95;2.17;;;22.20;57.70;;;;;;5030427;28;20033;-76
2021/12/30 23:37:39;;;;;;;10.63;2.83;;;22.20;57.70;;;;;;5026110;28;20416;-79
2021/12/30 23:40:06;;;;;;;3.60;2.00;;;22.10;57.70;;;;;;5025541;28;20018;-78
2021/12/30 23:42:33;;;;;;;9.27;2.67;;;22.10;57.80;;;;;;5030876;28;20026;-79
2021/12/30 23:45:00;;;;;;;6.65;2.20;;;22.10;57.70;;;;;;5027389;28;20057;-80
2021/12/30 23:47:26;;;;;;;10.48;2.92;;;22.10;57.70;;;;;;5027824;28;20385;-78
2021/12/30 23:49:58;;;;;;;7.82;2.45;;;22.10;57.60;;;;;;5025791;28;20068;-77
2021/12/30 23:52:28;;;;;;;9.10;2.38;;;22.10;57.60;;;;;;5031918;28;20041;-77
2021/12/30 23:54:55;;;;;;;4.80;2.72;;;22.10;57.60;;;;;;5028033;28;20084;-71
2021/12/30 23:57:22;;;;;;;12.57;3.47;;;22.10;57.70;;;;;;5028121;28;20025;-68
2021/12/30 23:59:49;;;;;;;14.55;2.58;;;22.00;57.70;;;;;;5028199;28;20022;-79
